createdAt,value
2022-08-22T00:01:33.649Z,1.80
2022-08-22T00:02:52.694Z,1.70
2022-08-22T00:02:53.348Z,2.30
2022-08-22T00:02:56.162Z,1.60
2022-08-22T00:03:12.286Z,1.37
2022-08-22T00:04:09.055Z,1.40
2022-08-22T00:06:42.628Z,1.45
2022-08-22T00:09:17.775Z,1.70
2022-08-22T00:11:50.825Z,1.50
2022-08-22T00:14:24.146Z,1.63
2022-08-22T00:16:56.568Z,1.80
2022-08-22T00:19:28.137Z,2.00
2022-08-22T00:22:01.091Z,1.80
2022-08-22T00:24:32.710Z,1.70
2022-08-22T00:27:04.301Z,1.67
2022-08-22T00:29:37.335Z,1.70
2022-08-22T00:32:10.371Z,1.50
2022-08-22T00:34:41.760Z,1.85
2022-08-22T00:37:12.937Z,1.80
2022-08-22T00:39:46.169Z,1.70
2022-08-22T00:42:32.074Z,1.60
2022-08-22T00:45:25.149Z,1.70
2022-08-22T00:47:58.865Z,1.90
2022-08-22T00:50:34.847Z,1.60
2022-08-22T00:53:16.068Z,1.70
2022-08-22T00:56:02.834Z,1.70
2022-08-22T00:58:50.040Z,1.58
2022-08-22T01:01:22.682Z,1.77
2022-08-22T01:03:55.272Z,1.63
2022-08-22T01:06:26.791Z,1.80
2022-08-22T01:09:01.881Z,1.45
2022-08-22T01:11:45.085Z,1.60
2022-08-22T01:14:34.971Z,1.80
2022-08-22T01:17:32.936Z,1.60
2022-08-22T01:20:30.506Z,1.70
2022-08-22T01:23:17.133Z,1.77
2022-08-22T01:26:04.741Z,2.00
2022-08-22T01:28:50.103Z,1.50
2022-08-22T01:31:44.312Z,1.80
2022-08-22T01:34:37.019Z,1.50
2022-08-22T01:37:26.510Z,1.70
2022-08-22T01:40:19.221Z,1.80
2022-08-22T01:42:59.931Z,1.70
2022-08-22T01:45:39.775Z,1.52
2022-08-22T01:48:11.116Z,1.77
2022-08-22T01:50:44.233Z,1.70
2022-08-22T01:53:16.206Z,1.60
2022-08-22T01:55:47.796Z,1.65
2022-08-22T01:58:19.775Z,2.00
2022-08-22T02:01:02.537Z,1.50
2022-08-22T02:03:33.659Z,2.55
2022-08-22T02:06:04.459Z,1.60
2022-08-22T02:08:39.784Z,2.05
2022-08-22T02:11:10.475Z,2.40
2022-08-22T02:13:49.717Z,1.80
2022-08-22T02:16:21.645Z,1.90
2022-08-22T02:19:02.190Z,1.95
2022-08-22T02:21:34.553Z,2.05
2022-08-22T02:24:05.692Z,1.70
2022-08-22T02:26:42.492Z,1.60
2022-08-22T02:29:14.809Z,1.70
2022-08-22T02:31:45.300Z,1.73
2022-08-22T02:34:20.036Z,1.88
2022-08-22T02:36:50.061Z,1.80
2022-08-22T02:39:22.968Z,1.70
2022-08-22T02:41:53.238Z,1.70
2022-08-22T02:44:32.692Z,1.80
2022-08-22T02:47:05.465Z,1.70
2022-08-22T02:49:43.869Z,1.90
2022-08-22T02:52:15.523Z,2.15
2022-08-22T02:54:49.242Z,2.10
2022-08-22T02:57:20.988Z,2.13
2022-08-22T03:00:31.352Z,2.00
2022-08-22T03:03:03.532Z,1.90
2022-08-22T03:05:48.964Z,2.05
2022-08-22T03:08:22.458Z,1.85
2022-08-22T03:10:58.942Z,2.20
2022-08-22T03:13:35.945Z,1.70
2022-08-22T03:16:10.632Z,2.05
2022-08-22T03:18:45.290Z,1.70
2022-08-22T03:21:16.614Z,2.00
2022-08-22T03:23:48.000Z,1.70
2022-08-22T03:26:19.063Z,2.33
2022-08-22T03:28:59.387Z,1.88
2022-08-22T03:31:31.575Z,2.10
2022-08-22T03:34:22.227Z,1.70
2022-08-22T03:37:00.745Z,2.10
2022-08-22T03:39:38.715Z,2.17
2022-08-22T03:42:15.787Z,1.98
2022-08-22T03:45:06.981Z,2.00
2022-08-22T03:47:53.934Z,2.00
2022-08-22T03:50:40.740Z,2.00
2022-08-22T03:53:31.032Z,2.30
2022-08-22T03:56:20.554Z,2.10
2022-08-22T03:58:58.034Z,2.60
2022-08-22T04:01:42.845Z,1.90
2022-08-22T04:04:21.646Z,1.92
2022-08-22T04:07:15.595Z,2.30
2022-08-22T04:10:04.348Z,1.88
2022-08-22T04:12:50.969Z,2.30
2022-08-22T04:15:36.006Z,2.03
2022-08-22T04:18:38.480Z,2.60
2022-08-22T04:21:28.064Z,2.25
2022-08-22T04:24:09.006Z,2.33
2022-08-22T04:26:41.986Z,2.00
2022-08-22T04:29:16.054Z,2.15
2022-08-22T04:31:48.221Z,2.10
2022-08-22T04:34:18.882Z,1.87
2022-08-22T04:36:50.614Z,2.00
2022-08-22T04:39:24.979Z,2.10
2022-08-22T04:42:00.649Z,1.83
2022-08-22T04:44:38.490Z,2.10
2022-08-22T04:47:10.130Z,2.22
2022-08-22T04:49:40.777Z,2.30
2022-08-22T04:52:12.919Z,2.20
2022-08-22T04:54:50.356Z,2.13
2022-08-22T04:57:24.313Z,2.30
2022-08-22T04:59:53.142Z,2.28
2022-08-22T05:02:23.350Z,2.30
2022-08-22T05:04:53.783Z,1.92
2022-08-22T05:07:23.821Z,2.30
2022-08-22T05:09:56.400Z,2.20
2022-08-22T05:12:30.258Z,2.20
2022-08-22T05:15:03.671Z,2.22
2022-08-22T05:17:33.767Z,2.65
2022-08-22T05:20:06.549Z,2.43
2022-08-22T05:22:37.518Z,2.30
2022-08-22T05:25:11.057Z,2.50
2022-08-22T05:27:43.338Z,2.00
2022-08-22T05:30:15.961Z,2.40
2022-08-22T05:32:50.118Z,2.60
2022-08-22T05:35:20.151Z,2.58
2022-08-22T05:37:50.496Z,2.10
2022-08-22T05:40:22.449Z,1.92
2022-08-22T05:42:52.453Z,2.10
2022-08-22T05:45:21.998Z,2.05
2022-08-22T05:47:53.192Z,2.50
2022-08-22T05:50:23.864Z,2.15
2022-08-22T05:53:00.674Z,2.03
2022-08-22T05:55:33.725Z,2.20
2022-08-22T05:58:11.863Z,2.50
2022-08-22T06:00:42.528Z,2.50
2022-08-22T06:03:15.481Z,2.40
2022-08-22T06:05:47.004Z,2.60
2022-08-22T06:08:19.752Z,2.35
2022-08-22T06:10:51.159Z,2.33
2022-08-22T06:13:24.522Z,2.80
2022-08-22T06:15:56.764Z,2.70
2022-08-22T06:18:27.176Z,2.30
2022-08-22T06:20:57.445Z,2.63
2022-08-22T06:23:28.449Z,2.60
2022-08-22T06:25:59.962Z,2.17
2022-08-22T06:28:32.789Z,2.10
2022-08-22T06:31:02.228Z,2.40
2022-08-22T06:33:33.372Z,2.20
2022-08-22T06:36:21.446Z,2.28
2022-08-22T06:39:01.295Z,2.30
2022-08-22T06:41:32.752Z,2.40
2022-08-22T06:44:02.173Z,2.30
2022-08-22T06:46:31.460Z,2.42
2022-08-22T06:49:01.330Z,2.45
2022-08-22T06:51:30.535Z,2.70
2022-08-22T06:54:01.688Z,2.00
2022-08-22T06:56:35.764Z,1.80
2022-08-22T06:59:09.112Z,2.25
2022-08-22T07:01:45.371Z,1.80
2022-08-22T07:04:14.200Z,1.73
2022-08-22T07:06:44.290Z,2.00
2022-08-22T07:09:19.369Z,1.90
2022-08-22T07:11:49.803Z,1.70
2022-08-22T07:14:19.636Z,2.00
2022-08-22T07:16:52.104Z,1.88
2022-08-22T07:19:25.338Z,2.00
2022-08-22T07:21:54.445Z,1.90
2022-08-22T07:24:24.679Z,2.10
2022-08-22T07:27:02.861Z,1.80
2022-08-22T07:29:42.673Z,1.90
2022-08-22T07:32:14.038Z,1.95
2022-08-22T07:34:48.872Z,2.00
2022-08-22T07:37:20.440Z,1.80
2022-08-22T07:39:53.765Z,1.90
2022-08-22T07:42:29.768Z,2.20
2022-08-22T07:45:04.109Z,2.47
2022-08-22T07:47:39.641Z,2.10
2022-08-22T07:50:09.535Z,1.87
2022-08-22T07:52:42.025Z,1.77
2022-08-22T07:55:14.688Z,1.50
2022-08-22T07:57:46.513Z,1.70
2022-08-22T08:00:16.890Z,1.80
2022-08-22T08:02:48.053Z,1.80
2022-08-22T08:05:17.615Z,1.83
2022-08-22T08:07:48.239Z,1.90
2022-08-22T08:10:18.684Z,1.20
2022-08-22T08:13:00.564Z,1.63
2022-08-22T08:15:32.673Z,1.30
2022-08-22T08:18:05.428Z,1.63
2022-08-22T08:20:35.996Z,1.70
2022-08-22T08:23:05.461Z,1.57
2022-08-22T08:25:49.011Z,1.57
2022-08-22T08:28:36.198Z,1.73
2022-08-22T08:31:13.279Z,1.53
2022-08-22T08:33:44.159Z,1.73
2022-08-22T08:36:21.228Z,1.70
2022-08-22T08:38:54.321Z,1.90
2022-08-22T08:41:32.761Z,2.10
2022-08-22T08:44:05.726Z,1.90
2022-08-22T08:46:55.781Z,2.03
2022-08-22T08:49:38.768Z,1.70
2022-08-22T08:52:25.329Z,1.83
2022-08-22T08:54:59.825Z,1.40
2022-08-22T08:57:36.465Z,1.50
2022-08-22T09:00:12.261Z,1.33
2022-08-22T09:02:50.067Z,1.50
2022-08-22T09:05:37.427Z,1.87
2022-08-22T09:08:25.007Z,1.70
2022-08-22T09:14:01.091Z,1.47
2022-08-22T09:16:45.058Z,1.60
2022-08-22T09:19:35.333Z,1.60
2022-08-22T09:22:14.652Z,1.50
2022-08-22T09:24:52.375Z,2.43
2022-08-22T09:27:28.453Z,1.90
2022-08-22T09:30:00.013Z,2.40
2022-08-22T09:32:38.640Z,1.30
2022-08-22T09:35:15.226Z,2.13
2022-08-22T09:37:50.953Z,2.10
2022-08-22T09:40:29.344Z,1.50
2022-08-22T09:43:02.894Z,1.43
2022-08-22T09:45:43.016Z,1.47
2022-08-22T09:48:23.848Z,1.47
2022-08-22T09:51:08.276Z,1.70
2022-08-22T09:54:03.593Z,1.70
2022-08-22T09:56:37.921Z,1.70
2022-08-22T09:59:09.872Z,1.70
2022-08-22T10:01:42.523Z,1.50
2022-08-22T10:04:30.089Z,1.93
2022-08-22T10:07:11.022Z,1.53
2022-08-22T10:09:46.249Z,1.70
2022-08-22T10:12:19.304Z,1.67
2022-08-22T10:15:02.392Z,1.60
2022-08-22T15:38:51.534Z,2.33
2022-08-22T15:41:38.837Z,2.60
2022-08-22T15:44:14.973Z,2.10
2022-08-22T15:47:02.171Z,2.40
2022-08-22T15:49:32.094Z,2.45
2022-08-22T15:52:14.993Z,2.45
2022-08-22T15:55:02.798Z,2.33
2022-08-22T15:57:35.898Z,2.88
2022-08-22T16:00:12.242Z,2.38
2022-08-22T16:02:43.437Z,2.03
2022-08-22T16:05:25.279Z,2.78
2022-08-22T16:08:02.808Z,2.20
2022-08-22T16:10:33.720Z,2.37
2022-08-22T16:13:35.405Z,2.13
2022-08-22T16:16:10.028Z,2.30
2022-08-22T16:18:57.465Z,2.10
2022-08-22T16:21:41.801Z,2.37
2022-08-22T16:24:29.668Z,2.20
2022-08-22T16:27:16.513Z,2.43
2022-08-22T16:29:45.152Z,2.40
2022-08-22T16:32:24.370Z,3.50
2022-08-22T16:34:53.030Z,2.57
2022-08-22T16:37:33.424Z,2.13
2022-08-22T16:40:14.632Z,2.20
2022-08-22T16:42:46.449Z,2.43
2022-08-22T16:45:17.700Z,2.33
2022-08-22T16:48:02.274Z,2.00
2022-08-22T16:50:38.369Z,2.20
2022-08-22T16:53:09.238Z,2.83
2022-08-22T16:55:42.412Z,2.10
2022-08-22T16:58:16.315Z,2.37
2022-08-22T17:00:50.106Z,2.47
2022-08-22T17:03:24.283Z,2.37
2022-08-22T17:05:56.962Z,2.20
2022-08-22T17:08:40.841Z,2.77
2022-08-22T17:11:16.011Z,3.17
2022-08-22T17:13:53.467Z,1.90
2022-08-22T17:16:29.070Z,2.37
2022-08-22T17:19:09.188Z,2.40
2022-08-22T17:21:40.740Z,3.07
2022-08-22T17:24:32.201Z,2.60
2022-08-22T17:27:05.219Z,1.93
2022-08-22T17:29:42.920Z,2.40
2022-08-22T17:32:16.966Z,2.27
2022-08-22T17:34:52.027Z,2.93
2022-08-22T17:37:24.116Z,2.47
2022-08-22T17:40:17.074Z,2.50
2022-08-22T17:42:54.327Z,2.27
2022-08-22T17:45:28.771Z,2.27
2022-08-22T17:48:03.108Z,2.40
2022-08-22T17:50:36.089Z,2.13
2022-08-22T17:53:06.738Z,2.20
2022-08-22T17:55:40.413Z,2.33
2022-08-22T17:58:13.557Z,2.23
2022-08-22T18:01:10.838Z,2.20
2022-08-22T18:03:41.469Z,2.50
2022-08-22T18:06:13.246Z,2.43
2022-08-22T18:11:40.250Z,2.17
2022-08-22T18:14:10.678Z,2.40
2022-08-22T18:16:45.340Z,2.67
2022-08-22T18:19:18.707Z,2.40
2022-08-22T18:21:51.549Z,2.30
2022-08-22T18:24:22.665Z,2.20
2022-08-22T18:26:55.819Z,2.83
2022-08-22T18:29:26.481Z,2.10
2022-08-22T18:32:01.700Z,2.13
2022-08-22T18:34:38.282Z,2.50
2022-08-22T18:37:16.693Z,1.90
2022-08-22T18:39:51.390Z,2.80
2022-08-22T18:42:23.799Z,3.23
2022-08-22T18:44:54.801Z,3.40
2022-08-22T18:47:25.565Z,4.40
2022-08-22T18:49:55.283Z,6.73
2022-08-22T18:52:37.172Z,5.70
2022-08-22T18:55:24.188Z,4.20
2022-08-22T18:58:12.811Z,5.73
2022-08-22T19:00:55.950Z,4.87
2022-08-22T19:03:36.058Z,4.00
2022-08-22T19:06:25.924Z,3.97
2022-08-22T19:09:05.298Z,3.77
2022-08-22T19:11:42.871Z,3.33
2022-08-22T19:14:30.212Z,3.27
2022-08-22T19:17:22.048Z,3.40
2022-08-22T19:20:13.978Z,3.17
2022-08-22T19:22:43.492Z,2.70
2022-08-22T19:25:17.007Z,2.60
2022-08-22T19:27:46.671Z,2.30
2022-08-22T19:30:36.394Z,3.10
2022-08-22T19:33:07.498Z,2.97
2022-08-22T19:35:43.901Z,3.07
2022-08-22T19:38:13.403Z,2.60
2022-08-22T19:40:58.387Z,2.80
2022-08-22T19:43:29.826Z,3.17
2022-08-22T19:45:59.731Z,3.23
2022-08-22T19:48:31.438Z,4.10
2022-08-22T19:51:11.086Z,2.60
2022-08-22T19:53:44.572Z,2.50
2022-08-22T19:56:31.112Z,4.00
2022-08-22T19:59:06.820Z,2.73
2022-08-22T20:01:55.950Z,2.70
2022-08-22T20:04:57.568Z,3.00
2022-08-22T20:07:30.419Z,2.77
2022-08-22T20:10:05.470Z,2.50
2022-08-22T20:12:38.967Z,3.03
2022-08-22T20:15:17.370Z,2.77
2022-08-22T20:18:11.544Z,3.10
2022-08-22T20:20:38.033Z,2.60
2022-08-22T20:23:10.382Z,2.60
2022-08-22T20:25:44.240Z,2.70
2022-08-22T20:28:36.066Z,3.10
2022-08-22T20:31:06.526Z,3.17
2022-08-22T20:33:36.282Z,2.77
2022-08-22T20:36:06.497Z,3.53
2022-08-22T20:38:55.440Z,3.00
2022-08-22T20:41:27.803Z,2.67
2022-08-22T20:44:00.317Z,2.47
2022-08-22T20:46:39.532Z,3.27
2022-08-22T20:49:17.153Z,2.80
2022-08-22T20:51:52.227Z,3.13
2022-08-22T20:54:22.880Z,2.87
2022-08-22T20:56:53.899Z,3.03
2022-08-22T20:59:27.314Z,2.90
2022-08-22T21:02:05.649Z,3.33
2022-08-22T21:04:42.676Z,3.70
2022-08-22T21:07:11.710Z,3.27
2022-08-22T21:09:58.151Z,2.43
2022-08-22T21:12:27.751Z,2.93
2022-08-22T21:14:57.739Z,3.10
2022-08-22T21:17:29.144Z,3.00
2022-08-22T21:20:17.446Z,2.97
2022-08-22T21:22:46.189Z,2.80
2022-08-22T21:25:14.968Z,2.50
2022-08-22T21:27:46.580Z,3.40
2022-08-22T21:30:23.006Z,2.73
2022-08-22T21:32:55.976Z,3.10
2022-08-22T21:35:27.349Z,2.63
2022-08-22T21:37:56.589Z,2.60
2022-08-22T21:40:31.187Z,2.57
2022-08-22T21:43:01.664Z,2.60
2022-08-22T21:45:32.977Z,4.10
2022-08-22T21:48:02.581Z,3.10
2022-08-22T21:50:38.321Z,3.20
2022-08-22T21:53:12.057Z,3.40
2022-08-22T21:55:44.719Z,2.70
2022-08-22T21:58:35.932Z,2.40
2022-08-22T22:01:21.099Z,2.27
2022-08-22T22:03:55.843Z,2.90
2022-08-22T22:06:25.645Z,3.00
2022-08-22T22:08:55.505Z,3.10
2022-08-22T22:11:25.373Z,2.97
2022-08-22T22:13:55.982Z,2.80
2022-08-22T22:16:28.297Z,3.07
2022-08-22T22:18:59.158Z,2.57
2022-08-22T22:21:27.921Z,2.50
2022-08-22T22:23:58.522Z,3.47
2022-08-22T22:26:28.645Z,2.50
2022-08-22T22:28:59.648Z,3.47
2022-08-22T22:31:28.379Z,2.93
2022-08-22T22:33:56.974Z,3.23
2022-08-22T22:36:28.500Z,2.47
2022-08-22T22:38:57.477Z,2.57
2022-08-22T22:41:26.268Z,2.97
2022-08-22T22:43:54.891Z,2.80
2022-08-22T22:46:24.411Z,3.00
2022-08-22T22:48:54.081Z,3.10
2022-08-22T22:51:22.787Z,3.30
2022-08-22T22:53:52.927Z,4.60
2022-08-22T22:56:23.413Z,3.50
2022-08-22T22:59:00.932Z,2.73
2022-08-22T23:02:00.611Z,3.17
2022-08-22T23:04:29.344Z,3.40
2022-08-22T23:06:57.995Z,2.83
2022-08-22T23:09:38.703Z,2.57
2022-08-22T23:12:14.565Z,2.70
2022-08-22T23:14:43.262Z,3.30
2022-08-22T23:17:11.977Z,3.03
2022-08-22T23:19:40.829Z,3.20
2022-08-22T23:22:10.962Z,2.63
2022-08-22T23:24:41.479Z,2.97
2022-08-22T23:27:10.769Z,2.50
2022-08-22T23:29:40.959Z,2.63
2022-08-22T23:32:10.339Z,2.97
2022-08-22T23:34:39.923Z,3.20
2022-08-22T23:37:09.108Z,2.40
2022-08-22T23:39:39.165Z,2.93
2022-08-22T23:42:09.815Z,3.10
2022-08-22T23:44:39.351Z,2.60
2022-08-22T23:47:08.610Z,3.17
2022-08-22T23:49:37.981Z,3.10
2022-08-22T23:52:07.044Z,3.60
2022-08-22T23:54:35.745Z,2.73
2022-08-22T23:57:11.946Z,3.10
2022-08-22T23:59:47.933Z,2.90
